Time;durP1;ratioP1;P1;durP2;ratioP2;P2;SDS_P1;SDS_P2;PMS_P1;PMS_P2;Temp;Humidity;BMP_temperature;BMP_pressure;BME280_temperature;BME280_humidity;BME280_pressure;Samples;Min_cycle;Max_cycle;Signal;HPM_P1;HPM_P2
2023/10/11 00:03:05;;;;;;;14.85;6.85;;;16.10;99.90;;;;;;5010508;28;20053;-86
2023/10/11 00:05:40;;;;;;;10.45;6.57;;;16.10;99.90;;;;;;5004652;28;20426;-86
2023/10/11 00:08:09;;;;;;;12.20;7.40;;;16.00;99.90;;;;;;4994831;28;20384;-87
2023/10/11 00:10:42;;;;;;;11.32;6.85;;;16.00;99.90;;;;;;4994914;28;20451;-88
2023/10/11 00:13:11;;;;;;;12.80;7.28;;;16.00;99.90;;;;;;5010863;28;20152;-87
2023/10/11 00:15:38;;;;;;;12.38;7.25;;;16.30;99.90;;;;;;4993973;28;20053;-87
2023/10/11 00:18:04;;;;;;;13.68;6.60;;;15.90;99.90;;;;;;5010898;28;20058;-86
2023/10/11 00:23:06;;;;;;;11.82;6.75;;;15.90;99.90;;;;;;5010961;28;20414;-87
2023/10/11 00:25:31;;;;;;;13.23;7.47;;;15.90;99.90;;;;;;5003101;28;20046;-87
2023/10/11 00:27:58;;;;;;;10.82;7.18;;;15.90;99.90;;;;;;5010786;28;20050;-87
2023/10/11 00:30:30;;;;;;;10.35;7.55;;;15.90;99.90;;;;;;5011097;28;20128;-87
2023/10/11 00:32:58;;;;;;;11.40;7.55;;;15.80;99.90;;;;;;5010402;28;20077;-87
2023/10/11 00:35:24;;;;;;;12.13;8.48;;;15.90;99.90;;;;;;5010086;28;20038;-87
2023/10/11 00:37:54;;;;;;;16.27;8.35;;;15.90;99.90;;;;;;4994097;28;20410;-86
2023/10/11 00:40:32;;;;;;;13.98;9.10;;;15.90;99.90;;;;;;5009813;28;20053;-86
2023/10/11 00:42:58;;;;;;;13.57;8.40;;;15.80;99.90;;;;;;5010774;28;20033;-86
2023/10/11 00:45:31;;;;;;;14.18;8.65;;;15.90;99.90;;;;;;5010061;28;20049;-88
2023/10/11 00:48:01;;;;;;;12.57;8.18;;;15.80;99.90;;;;;;4993829;28;20064;-87
2023/10/11 00:50:30;;;;;;;17.02;8.35;;;15.80;99.90;;;;;;4991936;28;20038;-87
2023/10/11 00:52:57;;;;;;;15.50;9.07;;;15.80;99.90;;;;;;5009770;28;20049;-87
2023/10/11 00:55:23;;;;;;;14.68;8.63;;;15.80;99.90;;;;;;5009700;28;20098;-87
2023/10/11 00:57:53;;;;;;;16.50;8.82;;;15.90;99.90;;;;;;5010321;28;20045;-86
2023/10/11 01:00:23;;;;;;;14.35;9.10;;;15.90;99.90;;;;;;5005989;28;20158;-87
2023/10/11 01:02:51;;;;;;;14.40;9.50;;;15.90;99.90;;;;;;5010084;28;20037;-86
2023/10/11 01:05:22;;;;;;;16.88;10.07;;;15.90;99.90;;;;;;5010703;28;20057;-87
2023/10/11 01:07:51;;;;;;;19.30;9.68;;;15.90;99.90;;;;;;4994462;28;20084;-87
2023/10/11 01:10:18;;;;;;;17.60;10.00;;;15.80;99.90;;;;;;5009962;28;20049;-87
2023/10/11 01:12:44;;;;;;;18.83;10.20;;;15.80;99.90;;;;;;5010631;28;20052;-86
2023/10/11 01:15:11;;;;;;;17.45;10.05;;;15.80;99.90;;;;;;4993714;28;20653;-87
2023/10/11 01:17:38;;;;;;;17.67;10.38;;;15.80;99.90;;;;;;5028054;28;20049;-86
2023/10/11 01:20:14;;;;;;;20.25;10.25;;;15.80;99.90;;;;;;5009747;28;20053;-87
2023/10/11 01:22:43;;;;;;;20.38;10.70;;;15.80;99.90;;;;;;4993609;28;20128;-87
2023/10/11 01:25:17;;;;;;;18.23;11.07;;;15.80;99.90;;;;;;4992923;28;20041;-87
2023/10/11 01:27:44;;;;;;;14.02;10.07;;;15.90;99.90;;;;;;5010433;28;20045;-88
2023/10/11 01:30:11;;;;;;;18.77;11.32;;;16.30;99.90;;;;;;4994449;28;20090;-87
2023/10/11 01:32:37;;;;;;;22.83;11.80;;;15.80;99.90;;;;;;4993957;28;20102;-86
2023/10/11 01:35:07;;;;;;;18.35;11.30;;;15.80;99.90;;;;;;5010394;28;20092;-86
2023/10/11 01:37:41;;;;;;;20.60;11.48;;;15.80;99.90;;;;;;5010808;28;20179;-88
2023/10/11 01:40:08;;;;;;;19.00;11.00;;;15.80;99.90;;;;;;5009289;28;20126;-87
2023/10/11 01:42:36;;;;;;;23.88;11.77;;;15.80;99.90;;;;;;5008695;28;20049;-87
2023/10/11 01:45:03;;;;;;;19.17;11.48;;;15.70;99.90;;;;;;5009385;28;20061;-88
2023/10/11 01:47:29;;;;;;;20.33;12.43;;;15.70;99.90;;;;;;4994076;28;20046;-87
2023/10/11 01:49:55;;;;;;;21.08;11.60;;;15.80;99.90;;;;;;4994359;28;20061;-86
2023/10/11 01:52:20;;;;;;;19.20;12.30;;;15.70;99.90;;;;;;5002679;28;20045;-88
2023/10/11 01:54:47;;;;;;;20.35;12.02;;;15.70;99.90;;;;;;5010179;28;20392;-86
2023/10/11 01:57:13;;;;;;;20.55;12.80;;;15.70;99.90;;;;;;5010389;28;20132;-86
2023/10/11 01:59:38;;;;;;;23.45;12.80;;;15.70;99.90;;;;;;5010486;28;20455;-87
2023/10/11 02:02:09;;;;;;;18.55;12.13;;;15.70;99.90;;;;;;4997052;28;20122;-88
2023/10/11 02:04:40;;;;;;;16.92;11.85;;;15.70;99.90;;;;;;5013792;28;20498;-86
2023/10/11 02:07:05;;;;;;;23.42;12.50;;;15.70;99.90;;;;;;5013746;28;20041;-87
2023/10/11 02:09:34;;;;;;;19.33;13.43;;;15.60;99.90;;;;;;4998635;28;20092;-86
2023/10/11 02:12:00;;;;;;;22.83;13.07;;;15.70;99.90;;;;;;5013888;28;20084;-87
2023/10/11 02:14:28;;;;;;;22.15;13.48;;;15.70;99.90;;;;;;5014350;28;20048;-86
2023/10/11 02:16:53;;;;;;;24.50;12.82;;;15.70;99.90;;;;;;4997121;28;20179;-86
2023/10/11 02:19:22;;;;;;;21.88;12.95;;;15.70;99.90;;;;;;5010148;28;20170;-87
2023/10/11 02:21:48;;;;;;;24.65;12.82;;;15.90;99.90;;;;;;5010513;28;20057;-87
2023/10/11 02:24:14;;;;;;;20.17;13.63;;;15.60;99.90;;;;;;4993712;28;20038;-87
2023/10/11 02:26:41;;;;;;;22.33;14.73;;;15.80;99.90;;;;;;5010577;28;20137;-87
2023/10/11 02:29:15;;;;;;;21.60;13.52;;;15.60;99.90;;;;;;5010151;28;20057;-86
2023/10/11 02:31:41;;;;;;;23.60;14.23;;;15.60;99.90;;;;;;4986675;28;20095;-86
2023/10/11 02:34:12;;;;;;;23.83;13.55;;;16.20;99.90;;;;;;5010068;28;20054;-86
2023/10/11 02:36:42;;;;;;;21.15;13.00;;;15.70;99.90;;;;;;4986481;28;20042;-87
2023/10/11 02:39:17;;;;;;;23.35;13.20;;;15.60;99.90;;;;;;4994139;28;20045;-87
2023/10/11 02:41:45;;;;;;;22.50;13.57;;;15.50;99.90;;;;;;4986224;28;20473;-86
2023/10/11 02:44:14;;;;;;;20.83;12.63;;;15.50;99.90;;;;;;5010519;28;20038;-88
2023/10/11 02:46:42;;;;;;;20.42;12.45;;;16.00;99.90;;;;;;5010365;28;20042;-87
2023/10/11 02:49:20;;;;;;;23.85;13.85;;;15.60;99.90;;;;;;4986751;28;20045;-87
2023/10/11 02:51:53;;;;;;;22.80;13.75;;;15.90;99.90;;;;;;5009953;28;20117;-87
2023/10/11 02:54:20;;;;;;;25.13;13.40;;;15.50;99.90;;;;;;4993900;28;20038;-89
2023/10/11 02:56:48;;;;;;;16.67;12.48;;;15.60;99.90;;;;;;4993067;28;20041;-86
2023/10/11 02:59:19;;;;;;;24.77;13.65;;;15.60;99.90;;;;;;5010288;28;20088;-86
2023/10/11 03:02:01;;;;;;;21.88;12.52;;;15.50;99.90;;;;;;5009647;28;20077;-86
2023/10/11 03:04:40;;;;;;;22.27;13.60;;;15.60;99.90;;;;;;5009839;28;20038;-87
2023/10/11 03:07:12;;;;;;;21.33;12.48;;;15.50;99.90;;;;;;4993024;28;20042;-86
2023/10/11 03:09:40;;;;;;;24.45;12.52;;;16.00;99.90;;;;;;4993309;28;20042;-86
2023/10/11 03:12:50;;;;;;;24.35;12.52;;;15.60;99.90;;;;;;4993078;28;20045;-88
2023/10/11 03:14:55;;;;;;;19.95;12.32;;;15.50;99.90;;;;;;4992036;28;20573;-88
2023/10/11 03:17:21;;;;;;;21.52;12.52;;;15.80;99.90;;;;;;5009342;28;20050;-87
2023/10/11 03:19:49;;;;;;;21.42;12.05;;;15.60;99.90;;;;;;5008294;28;20066;-88
2023/10/11 03:22:21;;;;;;;20.20;12.25;;;15.40;99.90;;;;;;4993049;28;20049;-87
2023/10/11 03:25:13;;;;;;;20.17;12.32;;;15.50;99.90;;;;;;5001138;28;20503;-87
2023/10/11 03:27:45;;;;;;;20.02;12.38;;;15.40;99.90;;;;;;5008709;28;20108;-87
2023/10/11 03:30:13;;;;;;;23.70;12.30;;;15.60;99.90;;;;;;5003115;28;20060;-87
2023/10/11 03:32:41;;;;;;;24.67;12.75;;;15.30;99.90;;;;;;4991427;28;20053;-87
2023/10/11 03:35:09;;;;;;;22.88;12.70;;;15.30;99.90;;;;;;4991792;28;20046;-87
2023/10/11 03:37:37;;;;;;;26.67;13.13;;;15.30;99.90;;;;;;5008976;28;20053;-87
2023/10/11 03:40:13;;;;;;;21.77;12.13;;;15.40;99.90;;;;;;4991553;28;20050;-87
2023/10/11 03:42:50;;;;;;;21.15;13.00;;;15.30;99.90;;;;;;5009381;28;20081;-87
2023/10/11 03:45:16;;;;;;;18.55;11.43;;;15.60;99.90;;;;;;4992053;28;20069;-87
2023/10/11 03:47:43;;;;;;;24.67;12.88;;;15.30;99.90;;;;;;4992506;28;20088;-87
2023/10/11 03:50:11;;;;;;;20.65;11.98;;;15.30;99.90;;;;;;4991708;28;20110;-87
2023/10/11 03:52:40;;;;;;;23.02;11.93;;;15.30;99.90;;;;;;5007637;28;20057;-87
2023/10/11 03:55:10;;;;;;;23.65;12.23;;;15.30;99.90;;;;;;4989654;28;20494;-86
2023/10/11 03:57:42;;;;;;;20.83;12.20;;;15.30;99.90;;;;;;5007909;28;20519;-87
2023/10/11 04:00:24;;;;;;;23.48;12.32;;;15.40;99.90;;;;;;5005756;28;20116;-88
2023/10/11 04:02:58;;;;;;;23.92;12.02;;;15.40;99.90;;;;;;5004319;28;20052;-88
2023/10/11 04:05:29;;;;;;;22.80;11.68;;;15.50;99.90;;;;;;4991478;28;20491;-87
2023/10/11 04:07:55;;;;;;;21.67;12.00;;;16.00;99.90;;;;;;4991272;28;20081;-87
2023/10/11 04:10:38;;;;;;;23.20;12.57;;;15.60;99.90;;;;;;4984070;28;20073;-88
2023/10/11 04:13:09;;;;;;;19.05;11.43;;;16.20;99.90;;;;;;5005857;28;20050;-87
2023/10/11 04:15:39;;;;;;;26.20;12.95;;;15.60;99.90;;;;;;4991858;28;20048;-88
2023/10/11 04:18:06;;;;;;;23.50;12.48;;;15.60;99.90;;;;;;5011102;28;20057;-88
2023/10/11 04:20:40;;;;;;;23.42;11.57;;;15.60;99.90;;;;;;4995473;28;20122;-88
2023/10/11 04:23:10;;;;;;;20.25;10.98;;;15.80;99.90;;;;;;5010668;28;20117;-88
2023/10/11 04:25:39;;;;;;;19.88;11.30;;;15.60;99.90;;;;;;4994344;28;20049;-88
2023/10/11 04:28:05;;;;;;;19.23;11.60;;;15.70;99.90;;;;;;4998686;28;20046;-88
2023/10/11 04:30:41;;;;;;;20.35;11.88;;;15.60;99.90;;;;;;5003817;28;20049;-87
2023/10/11 04:33:29;;;;;;;23.77;11.45;;;15.60;99.90;;;;;;4994822;28;20041;-87
2023/10/11 04:35:56;;;;;;;22.58;11.13;;;15.90;99.90;;;;;;5006599;28;20052;-88
2023/10/11 04:38:22;;;;;;;23.02;11.18;;;15.60;99.90;;;;;;4994603;28;20056;-87
2023/10/11 04:40:51;;;;;;;27.70;13.20;;;15.50;99.90;;;;;;4994688;28;20033;-89
2023/10/11 04:43:21;;;;;;;20.55;11.43;;;15.50;99.90;;;;;;5010358;28;20560;-86
2023/10/11 04:45:51;;;;;;;21.70;11.70;;;15.50;99.90;;;;;;5009252;28;20069;-86
2023/10/11 04:48:19;;;;;;;21.75;11.48;;;15.40;99.90;;;;;;5010816;28;20049;-86
2023/10/11 04:50:53;;;;;;;21.42;11.88;;;15.50;99.90;;;;;;5010069;28;20044;-87
2023/10/11 04:53:19;;;;;;;20.00;11.43;;;15.40;99.90;;;;;;5009291;28;20052;-87
2023/10/11 04:55:47;;;;;;;18.65;11.82;;;15.40;99.90;;;;;;4994105;28;20041;-89
2023/10/11 04:58:39;;;;;;;22.67;12.02;;;15.50;99.90;;;;;;5011244;28;20514;-87
2023/10/11 05:01:08;;;;;;;20.00;11.38;;;15.50;99.90;;;;;;4989838;28;20038;-88
2023/10/11 05:03:37;;;;;;;18.10;11.63;;;15.50;99.90;;;;;;4993535;28;20045;-87
2023/10/11 05:06:12;;;;;;;21.45;11.75;;;15.50;99.90;;;;;;4994180;28;20128;-88
2023/10/11 05:08:51;;;;;;;19.92;12.30;;;15.50;99.90;;;;;;4994133;28;20076;-87
2023/10/11 05:11:39;;;;;;;20.05;11.90;;;15.50;99.90;;;;;;4986973;28;20116;-88
2023/10/11 05:14:10;;;;;;;23.10;12.25;;;15.50;99.90;;;;;;5027387;28;20051;-89
2023/10/11 05:16:38;;;;;;;25.08;12.75;;;15.50;99.90;;;;;;4985832;28;20049;-85
2023/10/11 05:19:05;;;;;;;19.38;11.93;;;15.50;99.90;;;;;;5005264;28;20085;-86
2023/10/11 05:21:38;;;;;;;22.13;12.70;;;15.50;99.90;;;;;;4992945;28;20080;-89
2023/10/11 05:27:03;;;;;;;27.85;12.40;;;15.50;99.90;;;;;;5009880;28;20049;-87
2023/10/11 05:29:32;;;;;;;24.17;13.07;;;15.50;99.90;;;;;;4991584;28;20475;-85
2023/10/11 05:34:50;;;;;;;23.02;13.43;;;15.50;99.90;;;;;;5011545;28;20057;-87
2023/10/11 05:50:58;;;;;;;26.95;14.10;;;15.40;99.90;;;;;;5023710;28;20056;-83
2023/10/11 05:53:25;;;;;;;23.00;13.52;;;15.50;99.90;;;;;;4996839;28;20045;-84
2023/10/11 05:55:52;;;;;;;26.77;14.00;;;15.40;99.90;;;;;;5012094;28;20094;-84
2023/10/11 05:58:19;;;;;;;24.10;13.98;;;15.40;99.90;;;;;;5012488;28;20053;-84
2023/10/11 06:00:49;;;;;;;25.55;13.48;;;15.40;99.90;;;;;;5012298;28;20212;-84
2023/10/11 06:03:16;;;;;;;26.85;14.88;;;15.40;99.90;;;;;;5010208;28;20056;-83
2023/10/11 06:05:42;;;;;;;27.80;14.73;;;15.30;99.90;;;;;;5029943;28;20052;-84
2023/10/11 06:08:15;;;;;;;25.10;14.43;;;15.70;99.90;;;;;;4995573;28;20037;-84
2023/10/11 06:10:44;;;;;;;24.98;14.43;;;15.30;99.90;;;;;;4995696;28;20067;-84
2023/10/11 06:13:13;;;;;;;25.60;15.25;;;15.30;99.90;;;;;;5011941;28;20049;-85
2023/10/11 06:16:07;;;;;;;32.72;15.15;;;15.30;99.90;;;;;;5011263;28;20042;-85
2023/10/11 06:18:39;;;;;;;26.55;14.02;;;15.60;99.90;;;;;;5023839;28;20157;-83
2023/10/11 06:21:19;;;;;;;31.10;15.47;;;15.30;99.90;;;;;;5012478;28;20045;-83
2023/10/11 06:23:48;;;;;;;24.77;15.10;;;15.30;99.90;;;;;;5005872;28;20129;-84
2023/10/11 06:26:56;;;;;;;28.55;15.25;;;15.50;99.90;;;;;;4995385;28;20049;-84
2023/10/11 06:29:04;;;;;;;26.25;16.10;;;15.80;99.90;;;;;;4997909;28;20049;-85
2023/10/11 06:31:39;;;;;;;28.13;15.10;;;15.40;99.90;;;;;;5030853;28;21610;-84
2023/10/11 06:34:15;;;;;;;30.63;16.52;;;15.40;99.90;;;;;;5012311;28;20044;-85
2023/10/11 06:36:51;;;;;;;28.17;15.48;;;15.60;99.90;;;;;;5012451;28;20049;-85
2023/10/11 06:39:34;;;;;;;33.05;16.77;;;15.50;99.90;;;;;;4994180;28;20710;-85
2023/10/11 06:42:06;;;;;;;;;;;15.50;99.90;;;;;;5030019;28;20116;-85
2023/10/11 06:44:33;;;;;;;30.75;16.25;;;15.50;99.90;;;;;;4994789;28;19928;-86
2023/10/11 06:47:03;;;;;;;23.38;16.20;;;15.70;99.90;;;;;;4995109;28;20047;-84
2023/10/11 06:49:40;;;;;;;27.85;14.88;;;15.70;99.90;;;;;;4995357;28;20042;-84
2023/10/11 06:52:15;;;;;;;24.73;15.98;;;15.70;99.90;;;;;;5010565;28;20068;-85
2023/10/11 06:54:47;;;;;;;25.90;15.30;;;15.90;99.90;;;;;;5028164;28;20033;-85
2023/10/11 06:57:19;;;;;;;28.50;16.55;;;15.80;99.90;;;;;;5011270;28;20053;-85
2023/10/11 06:59:49;;;;;;;26.77;15.25;;;16.20;99.90;;;;;;5007288;28;20080;-85
2023/10/11 07:02:18;;;;;;;27.42;15.88;;;15.90;99.90;;;;;;5012086;28;20411;-85
2023/10/11 07:04:50;;;;;;;28.30;15.75;;;16.20;99.90;;;;;;4993753;28;20048;-83
2023/10/11 07:07:19;;;;;;;30.63;15.82;;;15.90;99.90;;;;;;5004522;28;20052;-85
2023/10/11 07:09:57;;;;;;;24.40;15.25;;;16.00;99.90;;;;;;5011204;28;20042;-84
2023/10/11 07:12:40;;;;;;;22.83;16.20;;;16.10;99.90;;;;;;5011206;28;20061;-83
2023/10/11 07:15:09;;;;;;;23.88;14.63;;;16.00;99.90;;;;;;5010778;28;20048;-84
2023/10/11 07:17:38;;;;;;;27.77;16.55;;;16.00;99.90;;;;;;5009400;28;20040;-84
2023/10/11 07:20:29;;;;;;;30.95;15.55;;;16.30;99.90;;;;;;5004337;28;20067;-84
2023/10/11 07:22:54;;;;;;;28.88;16.10;;;16.00;99.90;;;;;;5011636;28;20053;-83
2023/10/11 07:25:36;;;;;;;28.08;15.98;;;16.00;99.90;;;;;;4994709;28;20077;-84
2023/10/11 07:28:03;;;;;;;23.85;15.75;;;16.00;99.90;;;;;;5011619;28;20132;-84
2023/10/11 07:30:37;;;;;;;27.85;14.73;;;16.10;99.90;;;;;;5011080;28;20053;-85
2023/10/11 07:33:04;;;;;;;31.98;16.73;;;16.20;99.90;;;;;;5011436;28;20052;-87
2023/10/11 07:35:30;;;;;;;23.13;14.35;;;16.10;99.90;;;;;;5010861;28;20042;-84
2023/10/11 07:37:56;;;;;;;27.50;15.48;;;16.20;99.90;;;;;;4994268;28;20121;-84
2023/10/11 07:40:33;;;;;;;33.67;16.77;;;16.30;99.90;;;;;;4993875;28;20045;-85
2023/10/11 07:42:59;;;;;;;30.15;16.17;;;16.60;99.90;;;;;;4995071;28;20080;-85
2023/10/11 07:45:26;;;;;;;29.27;16.20;;;16.20;99.90;;;;;;5010889;28;20069;-84
2023/10/11 07:47:52;;;;;;;26.58;16.48;;;16.60;99.90;;;;;;4994372;28;20503;-84
2023/10/11 07:50:24;;;;;;;31.48;16.17;;;16.20;99.90;;;;;;5010783;28;20064;-87
2023/10/11 07:52:52;;;;;;;32.97;17.55;;;16.40;99.90;;;;;;5010278;28;20060;-88
2023/10/11 07:55:19;;;;;;;27.75;16.48;;;16.30;99.90;;;;;;4994384;28;20075;-85
2023/10/11 07:57:44;;;;;;;27.73;16.35;;;16.30;99.90;;;;;;5010893;28;20688;-84
2023/10/11 08:00:17;;;;;;;30.98;17.58;;;16.30;99.90;;;;;;5010542;28;20119;-85
2023/10/11 08:02:55;;;;;;;30.23;17.00;;;16.30;99.90;;;;;;5010286;28;20053;-85
2023/10/11 08:05:25;;;;;;;34.35;17.83;;;16.40;99.90;;;;;;4994677;28;20052;-87
2023/10/11 08:07:55;;;;;;;31.40;17.02;;;16.40;99.90;;;;;;4994860;28;20057;-83
2023/10/11 08:10:33;;;;;;;31.08;17.55;;;16.50;99.90;;;;;;4993826;28;20924;-86
2023/10/11 08:13:00;;;;;;;32.05;19.40;;;16.30;99.90;;;;;;5010280;28;20049;-85
2023/10/11 08:15:26;;;;;;;33.03;19.00;;;16.40;99.90;;;;;;5010379;28;20042;-84
2023/10/11 08:17:52;;;;;;;33.55;19.52;;;16.50;99.90;;;;;;5009895;28;20042;-85
2023/10/11 08:20:18;;;;;;;33.38;18.63;;;16.50;99.90;;;;;;5010437;28;20053;-86
2023/10/11 08:22:47;;;;;;;32.90;18.77;;;16.70;99.90;;;;;;5009892;28;20408;-85
2023/10/11 08:25:14;;;;;;;36.33;21.00;;;16.50;99.90;;;;;;5027971;28;20118;-85
2023/10/11 08:27:41;;;;;;;33.75;18.10;;;16.50;99.90;;;;;;5010426;28;20065;-85
2023/10/11 08:30:08;;;;;;;35.08;19.17;;;16.50;99.90;;;;;;4993662;28;20136;-85
2023/10/11 08:32:42;;;;;;;36.15;20.48;;;16.50;99.90;;;;;;4993609;28;20148;-85
2023/10/11 08:35:09;;;;;;;38.85;19.75;;;16.50;99.90;;;;;;4993430;28;20107;-85
2023/10/11 08:37:37;;;;;;;39.95;20.77;;;16.50;99.90;;;;;;5010261;28;20057;-84
2023/10/11 08:40:23;;;;;;;38.30;21.38;;;16.50;99.90;;;;;;5008402;28;20053;-84
2023/10/11 08:42:50;;;;;;;36.80;20.10;;;16.50;99.90;;;;;;5009855;28;20053;-85
2023/10/11 08:45:48;;;;;;;36.78;20.63;;;16.50;99.90;;;;;;5009737;28;20037;-84
2023/10/11 08:48:15;;;;;;;35.05;21.35;;;16.60;99.90;;;;;;5027865;28;20083;-86
2023/10/11 08:50:51;;;;;;;34.80;18.95;;;16.50;99.90;;;;;;4993354;28;20056;-86
2023/10/11 08:53:20;;;;;;;37.45;20.08;;;16.60;99.90;;;;;;5010181;28;20124;-87
2023/10/11 08:55:51;;;;;;;32.15;19.67;;;16.70;99.90;;;;;;5009357;28;20057;-86
2023/10/11 08:58:29;;;;;;;39.78;20.90;;;16.60;99.90;;;;;;5010092;28;20142;-86
2023/10/11 09:00:59;;;;;;;32.08;19.50;;;16.60;99.90;;;;;;5009810;28;20049;-84
2023/10/11 09:03:26;;;;;;;37.33;20.58;;;17.20;99.90;;;;;;4986158;28;20562;-86
2023/10/11 09:05:58;;;;;;;40.13;20.38;;;16.60;99.90;;;;;;5010229;28;20049;-83
2023/10/11 09:08:32;;;;;;;36.63;20.25;;;16.80;99.90;;;;;;5029000;28;20087;-88
2023/10/11 09:11:11;;;;;;;35.05;19.13;;;16.60;99.90;;;;;;5010992;28;20052;-88
2023/10/11 09:13:38;;;;;;;34.97;18.58;;;16.60;99.90;;;;;;5004087;28;20045;-86
2023/10/11 09:16:13;;;;;;;30.60;17.73;;;17.00;99.90;;;;;;5009283;28;20899;-86
2023/10/11 09:18:39;;;;;;;32.78;16.35;;;16.70;99.90;;;;;;4992078;28;20103;-86
2023/10/11 09:21:18;;;;;;;32.28;17.05;;;16.80;99.90;;;;;;5008650;28;20481;-86
2023/10/11 09:23:47;;;;;;;39.17;19.83;;;16.80;99.90;;;;;;4993170;28;20046;-87
2023/10/11 09:26:21;;;;;;;31.70;18.40;;;16.80;99.90;;;;;;4991926;28;20041;-87
2023/10/11 09:28:56;;;;;;;28.83;16.83;;;16.80;99.90;;;;;;5008660;28;20056;-87
2023/10/11 09:31:23;;;;;;;30.70;17.05;;;16.90;99.90;;;;;;5007851;28;20641;-86
2023/10/11 09:34:00;;;;;;;33.85;16.42;;;17.00;99.90;;;;;;5007431;28;20053;-87
2023/10/11 09:36:28;;;;;;;28.23;16.55;;;17.00;99.90;;;;;;5007803;28;20046;-86
2023/10/11 09:38:54;;;;;;;25.77;15.38;;;17.60;99.90;;;;;;5007941;28;20046;-86
2023/10/11 09:41:25;;;;;;;28.92;15.65;;;17.10;99.90;;;;;;5008081;28;20049;-88
2023/10/11 09:43:57;;;;;;;22.40;14.60;;;17.10;99.90;;;;;;5007603;28;20087;-87
2023/10/11 09:46:31;;;;;;;27.42;13.65;;;17.20;99.90;;;;;;5010143;28;20444;-88
2023/10/11 09:48:59;;;;;;;28.45;14.35;;;17.20;99.90;;;;;;5010023;28;20045;-88
2023/10/11 09:51:26;;;;;;;23.48;13.40;;;17.20;99.90;;;;;;4993020;28;20045;-87
2023/10/11 09:53:53;;;;;;;21.25;12.73;;;17.10;99.90;;;;;;4993418;28;20091;-88
2023/10/11 09:56:25;;;;;;;26.70;14.07;;;17.20;99.90;;;;;;5008981;28;20072;-87
2023/10/11 09:59:00;;;;;;;27.17;12.88;;;17.20;99.90;;;;;;5003824;28;20061;-89
2023/10/11 10:01:51;;;;;;;18.98;12.55;;;17.20;99.90;;;;;;5010304;28;20458;-87
2023/10/11 10:04:20;;;;;;;19.73;11.10;;;17.20;99.90;;;;;;5014216;28;20049;-86
2023/10/11 10:07:13;;;;;;;19.90;10.85;;;17.30;99.90;;;;;;5015121;28;20069;-87
2023/10/11 10:09:52;;;;;;;21.13;10.60;;;17.30;99.90;;;;;;4995013;28;20073;-86
2023/10/11 10:12:22;;;;;;;17.35;9.70;;;17.30;99.90;;;;;;5009257;28;20389;-86
2023/10/11 10:15:08;;;;;;;16.30;8.90;;;17.30;99.90;;;;;;5009261;28;20041;-87
2023/10/11 10:17:42;;;;;;;16.60;8.88;;;17.40;99.90;;;;;;4991669;28;20058;-86
2023/10/11 10:20:41;;;;;;;16.02;8.48;;;17.50;99.90;;;;;;4992619;28;20057;-87
2023/10/11 10:23:22;;;;;;;12.32;6.95;;;17.70;99.90;;;;;;5008236;28;20047;-88
2023/10/11 10:26:06;;;;;;;12.43;7.05;;;17.40;99.90;;;;;;5022088;28;20053;-87
2023/10/11 10:28:45;;;;;;;13.07;6.50;;;17.90;99.90;;;;;;5013785;28;20049;-86
2023/10/11 10:31:18;;;;;;;13.70;6.78;;;18.20;99.90;;;;;;4998078;28;20510;-88
2023/10/11 10:33:55;;;;;;;10.75;6.38;;;18.10;99.90;;;;;;5016459;28;20491;-89
2023/10/11 10:36:37;;;;;;;10.25;6.30;;;18.10;99.90;;;;;;5015017;28;20129;-89
2023/10/11 10:41:36;;;;;;;10.73;5.50;;;18.30;99.90;;;;;;5012971;28;20207;-88
2023/10/11 10:44:10;;;;;;;10.67;5.27;;;18.40;99.90;;;;;;5012562;28;20049;-89
2023/10/11 10:46:50;;;;;;;11.90;5.47;;;18.50;99.90;;;;;;5015045;28;20323;-90
2023/10/11 10:49:20;;;;;;;9.15;5.47;;;18.50;99.90;;;;;;5000095;28;20049;-90
2023/10/11 10:51:51;;;;;;;12.13;5.90;;;18.50;99.90;;;;;;4998192;28;20064;-90
2023/10/11 10:54:26;;;;;;;11.13;5.38;;;18.50;99.90;;;;;;4998257;28;20128;-89
2023/10/11 10:56:53;;;;;;;10.25;5.70;;;18.60;99.90;;;;;;5006027;28;20471;-90
2023/10/11 10:59:21;;;;;;;11.63;5.40;;;18.70;99.90;;;;;;4996259;28;20041;-90
2023/10/11 11:01:50;;;;;;;10.23;5.30;;;18.80;99.90;;;;;;4999101;28;20050;-89
2023/10/11 11:04:20;;;;;;;11.05;5.15;;;18.80;99.90;;;;;;4999436;28;20156;-90
2023/10/11 11:06:48;;;;;;;8.77;4.93;;;19.90;99.90;;;;;;4998018;28;20467;-90
2023/10/11 11:09:27;;;;;;;6.82;4.60;;;19.10;99.90;;;;;;4996443;28;20073;-89
2023/10/11 11:11:57;;;;;;;7.82;4.15;;;19.30;99.90;;;;;;4997308;28;20045;-89
2023/10/11 11:14:23;;;;;;;7.25;4.63;;;19.20;99.90;;;;;;5012948;28;20056;-89
2023/10/11 11:17:09;;;;;;;9.00;4.50;;;19.80;99.90;;;;;;5012949;28;20097;-89
2023/10/11 11:19:34;;;;;;;7.53;4.30;;;19.40;99.90;;;;;;4992716;28;20081;-87
2023/10/11 11:22:11;;;;;;;6.18;3.88;;;19.40;99.90;;;;;;5010648;28;20049;-90
2023/10/11 11:24:52;;;;;;;8.32;4.13;;;19.70;99.90;;;;;;5010007;28;21762;-89
2023/10/11 11:27:30;;;;;;;7.93;3.70;;;19.70;99.90;;;;;;5013779;28;20116;-85
2023/10/11 11:30:04;;;;;;;9.80;4.25;;;19.50;99.90;;;;;;4995845;28;20049;-87
2023/10/11 11:32:41;;;;;;;7.72;4.78;;;19.40;99.90;;;;;;5011597;28;20120;-88
2023/10/11 11:38:02;;;;;;;9.48;4.43;;;19.40;99.90;;;;;;5030312;28;20049;-88
2023/10/11 11:40:36;;;;;;;8.48;4.53;;;19.40;99.90;;;;;;5011604;28;20053;-87
2023/10/11 11:43:05;;;;;;;7.28;3.88;;;20.10;99.90;;;;;;5011886;28;20045;-89
2023/10/11 11:45:35;;;;;;;7.05;4.20;;;19.50;99.90;;;;;;5010947;28;20506;-89
2023/10/11 11:48:05;;;;;;;7.93;3.78;;;19.60;99.90;;;;;;5011706;28;20706;-89
2023/10/11 11:50:33;;;;;;;6.68;3.92;;;19.70;99.90;;;;;;4996148;28;20091;-86
2023/10/11 11:53:03;;;;;;;6.05;3.20;;;19.80;99.90;;;;;;5012154;28;20056;-86
2023/10/11 11:55:29;;;;;;;7.18;3.40;;;19.80;99.90;;;;;;4995545;28;20052;-85
2023/10/11 11:57:55;;;;;;;9.05;4.07;;;19.80;99.90;;;;;;5029520;28;20042;-86
2023/10/11 12:03:04;;;;;;;7.45;3.83;;;19.80;99.90;;;;;;5011257;28;20050;-86
2023/10/11 12:05:37;;;;;;;6.22;3.53;;;19.50;99.90;;;;;;5028612;28;20045;-87
2023/10/11 12:08:07;;;;;;;6.93;3.80;;;20.10;99.90;;;;;;5011165;28;20200;-87
2023/10/11 12:10:35;;;;;;;7.20;3.80;;;19.90;99.90;;;;;;5011430;28;20057;-87
2023/10/11 12:13:08;;;;;;;7.20;3.88;;;19.80;99.90;;;;;;5010291;28;20522;-86
2023/10/11 12:15:36;;;;;;;7.88;4.43;;;19.80;99.90;;;;;;5011086;28;20103;-87
2023/10/11 12:18:05;;;;;;;8.07;3.58;;;19.70;99.90;;;;;;4995566;28;20448;-89
2023/10/11 12:20:34;;;;;;;7.25;3.78;;;19.70;99.90;;;;;;5012086;28;20057;-88
2023/10/11 12:23:07;;;;;;;7.88;3.53;;;19.70;99.90;;;;;;4996095;28;20068;-88
2023/10/11 12:25:37;;;;;;;6.88;4.07;;;19.70;99.90;;;;;;4995747;28;20517;-89
2023/10/11 12:28:05;;;;;;;8.77;3.92;;;19.70;99.90;;;;;;5011176;28;20080;-87
2023/10/11 12:30:35;;;;;;;6.65;3.80;;;19.80;99.90;;;;;;4995900;28;20045;-87
2023/10/11 12:33:07;;;;;;;10.27;4.00;;;19.60;99.90;;;;;;5010524;28;20047;-87
2023/10/11 12:35:39;;;;;;;10.73;4.03;;;19.60;99.90;;;;;;4995654;28;20033;-87
2023/10/11 12:38:06;;;;;;;;;;;19.60;99.90;;;;;;4994591;28;20827;-87
2023/10/11 12:40:34;;;;;;;8.40;3.97;;;19.70;99.90;;;;;;4995781;28;19921;-87
2023/10/11 12:43:07;;;;;;;6.35;3.88;;;19.60;99.90;;;;;;4995719;28;20048;-88
2023/10/11 12:45:42;;;;;;;9.00;3.63;;;19.80;99.90;;;;;;5011961;28;20139;-92
2023/10/11 12:48:10;;;;;;;8.07;3.70;;;20.30;99.90;;;;;;4994050;28;20487;-90
2023/10/11 12:50:39;;;;;;;7.28;3.63;;;19.90;99.90;;;;;;4993754;28;20527;-90
2023/10/11 12:53:11;;;;;;;5.25;3.20;;;20.10;99.90;;;;;;4995323;28;20132;-85
2023/10/11 12:55:41;;;;;;;;;;;20.60;99.90;;;;;;5012459;28;20056;-88
2023/10/11 12:58:12;;;;;;;4.93;2.85;;;20.20;99.90;;;;;;4996112;28;19936;-88
2023/10/11 13:00:48;;;;;;;6.43;3.05;;;20.30;99.90;;;;;;4996072;28;20400;-89
2023/10/11 13:03:29;;;;;;;7.75;3.10;;;20.70;99.90;;;;;;4997230;28;20760;-88
2023/10/11 13:05:55;;;;;;;6.93;3.25;;;20.30;99.90;;;;;;4993936;28;20099;-86
2023/10/11 13:08:26;;;;;;;7.05;2.95;;;20.20;99.90;;;;;;4993994;28;20491;-87
2023/10/11 13:10:53;;;;;;;7.82;3.10;;;20.20;99.90;;;;;;4993432;28;20045;-88
2023/10/11 13:13:20;;;;;;;6.10;3.10;;;20.10;99.90;;;;;;4994191;28;20053;-86
2023/10/11 13:16:00;;;;;;;4.05;3.03;;;20.60;99.90;;;;;;4993892;28;20037;-89
2023/10/11 13:18:37;;;;;;;6.32;3.05;;;20.40;99.90;;;;;;5009672;28;20133;-91
2023/10/11 13:21:11;;;;;;;4.43;2.70;;;20.00;99.90;;;;;;5027165;28;20585;-90
2023/10/11 13:23:39;;;;;;;4.68;2.80;;;20.00;99.90;;;;;;4995566;28;20399;-87
2023/10/11 13:26:08;;;;;;;6.10;2.88;;;20.00;99.90;;;;;;5009797;28;20108;-88